createdAt,value
2018-02-05T00:00:03.411Z,93.50
2018-02-05T00:02:32.407Z,93.50
2018-02-05T00:05:04.567Z,93.50
2018-02-05T00:07:33.618Z,93.50
2018-02-05T00:10:03.718Z,93.50
2018-02-05T00:12:32.846Z,93.50
2018-02-05T00:15:00.943Z,93.50
2018-02-05T00:17:32.047Z,93.80
2018-02-05T00:20:00.430Z,93.50
2018-02-05T00:22:29.474Z,93.50
2018-02-05T00:32:42.806Z,93.30
2018-02-05T00:35:12.870Z,93.30
2018-02-05T00:37:46.342Z,93.30
2018-02-05T00:40:14.458Z,93.10
2018-02-05T00:42:43.590Z,93.20
2018-02-05T00:45:19.946Z,93.30
2018-02-05T00:47:48.003Z,93.40
2018-02-05T00:50:16.270Z,93.30
2018-02-05T00:52:44.289Z,93.20
2018-02-05T00:55:12.454Z,93.10
2018-02-05T00:57:41.469Z,93.10
2018-02-05T01:00:09.546Z,93.10
2018-02-05T01:02:37.646Z,93.10
2018-02-05T01:05:05.708Z,93.00
2018-02-05T01:07:34.698Z,93.00
2018-02-05T01:10:04.762Z,93.00
2018-02-05T01:12:32.846Z,93.00
2018-02-05T01:15:03.654Z,92.80
2018-02-05T01:17:34.442Z,92.80
2018-02-05T01:20:04.410Z,92.80
2018-02-05T01:22:37.566Z,92.90
2018-02-05T01:25:05.646Z,93.10
2018-02-05T01:27:40.746Z,93.10
2018-02-05T01:30:09.930Z,93.10
2018-02-05T01:32:38.006Z,93.10
2018-02-05T01:35:06.294Z,93.10
2018-02-05T01:37:36.026Z,93.20
2018-02-05T01:40:04.430Z,93.30
2018-02-05T01:42:35.978Z,93.40
2018-02-05T01:45:04.042Z,93.30
2018-02-05T01:47:33.202Z,93.20
2018-02-05T01:50:02.506Z,93.10
2018-02-05T01:52:31.934Z,93.00
2018-02-05T01:55:06.382Z,93.00
2018-02-05T01:57:35.247Z,93.00
2018-02-05T02:00:04.286Z,92.90
2018-02-05T02:02:39.498Z,92.90
2018-02-05T02:05:11.825Z,92.90
2018-02-05T02:07:41.937Z,93.00
2018-02-05T02:10:12.270Z,93.00
2018-02-05T02:12:47.750Z,92.90
2018-02-05T02:15:16.042Z,92.90
2018-02-05T02:17:45.358Z,92.90
2018-02-05T02:20:14.333Z,93.00
2018-02-05T02:22:46.853Z,92.90
2018-02-05T02:25:16.122Z,93.00
2018-02-05T02:27:45.097Z,93.00
2018-02-05T02:30:14.106Z,93.00
2018-02-05T02:32:42.185Z,93.00
2018-02-05T02:35:14.961Z,93.00
2018-02-05T02:37:43.530Z,93.00
2018-02-05T02:40:12.726Z,93.20
2018-02-05T02:42:43.850Z,93.30
2018-02-05T02:45:18.765Z,93.20
2018-02-05T02:47:46.839Z,93.10
2018-02-05T02:50:18.542Z,93.20
2018-02-05T02:52:48.685Z,93.10
2018-02-05T02:55:17.741Z,93.20
2018-02-05T02:57:48.217Z,93.30
2018-02-05T03:00:16.330Z,93.20
2018-02-05T03:02:53.394Z,93.20
2018-02-05T03:05:21.789Z,93.20
2018-02-05T03:08:03.745Z,93.30
2018-02-05T03:10:39.697Z,93.30
2018-02-05T03:13:07.950Z,93.20
2018-02-05T03:15:37.341Z,93.20
2018-02-05T03:18:09.493Z,93.10
2018-02-05T03:20:38.613Z,93.20
2018-02-05T03:23:10.353Z,93.10
2018-02-05T03:25:39.341Z,93.20
2018-02-05T03:28:11.509Z,93.10
2018-02-05T03:30:39.810Z,93.00
2018-02-05T03:33:09.797Z,93.00
2018-02-05T03:35:44.413Z,92.90
2018-02-05T03:38:13.521Z,93.00
2018-02-05T03:40:46.377Z,93.00
2018-02-05T03:43:14.485Z,93.00
2018-02-05T03:45:46.645Z,93.10
2018-02-05T03:48:15.829Z,93.10
2018-02-05T03:50:43.933Z,93.10
2018-02-05T03:53:24.427Z,93.20
2018-02-05T04:06:11.873Z,93.20
2018-02-05T04:08:40.473Z,93.30
2018-02-05T04:11:08.577Z,93.30
2018-02-05T04:13:36.633Z,93.30
2018-02-05T04:18:40.380Z,93.40
2018-02-05T04:21:11.653Z,93.30
2018-02-05T04:23:40.071Z,93.20
2018-02-05T04:26:12.221Z,93.20
2018-02-05T04:34:00.249Z,93.10
2018-02-05T04:39:03.489Z,93.00
2018-02-05T04:41:37.721Z,93.00
2018-02-05T04:44:07.845Z,93.00
2018-02-05T04:46:43.917Z,93.00
2018-02-05T04:49:17.541Z,93.00
2018-02-05T04:51:46.468Z,92.90
2018-02-05T04:54:16.457Z,92.80
2018-02-05T04:56:46.665Z,92.80
2018-02-05T04:59:15.513Z,92.80
2018-02-05T05:01:49.957Z,92.70
2018-02-05T05:04:20.908Z,92.70
2018-02-05T05:06:52.921Z,92.70
2018-02-05T05:12:01.569Z,92.60
2018-02-05T05:14:46.668Z,92.90
2018-02-05T05:17:27.505Z,92.60
2018-02-05T05:19:55.536Z,92.60
2018-02-05T05:22:24.492Z,92.60
2018-02-05T05:24:56.909Z,92.60
2018-02-05T05:27:25.925Z,92.60
2018-02-05T05:29:59.592Z,92.60
2018-02-05T05:32:33.513Z,92.50
2018-02-05T05:35:09.376Z,92.50
2018-02-05T05:40:11.880Z,92.50
2018-02-05T05:42:44.029Z,92.50
2018-02-05T05:45:13.369Z,92.50
2018-02-05T05:47:45.596Z,92.40
2018-02-05T05:50:13.633Z,92.20
2018-02-05T05:52:42.436Z,92.10
2018-02-05T05:55:10.472Z,92.10
2018-02-05T05:57:38.516Z,92.00
2018-02-05T06:00:07.540Z,92.00
2018-02-05T06:02:37.552Z,92.00
2018-02-05T06:05:05.584Z,92.00
2018-02-05T06:07:37.192Z,92.00
2018-02-05T06:10:05.218Z,92.10
2018-02-05T06:12:43.312Z,92.00
2018-02-05T06:15:12.384Z,91.80
2018-02-05T06:17:41.338Z,91.90
2018-02-05T06:20:13.856Z,91.80
2018-02-05T06:22:46.609Z,91.70
2018-02-05T06:25:15.428Z,91.60
2018-02-05T06:27:44.492Z,91.50
2018-02-05T06:30:17.688Z,91.70
2018-02-05T06:32:46.500Z,91.60
2018-02-05T06:35:18.232Z,91.60
2018-02-05T06:37:47.028Z,91.50
2018-02-05T06:40:17.011Z,91.50
2018-02-05T06:42:49.096Z,91.30
2018-02-05T06:45:19.835Z,91.20
2018-02-05T06:47:48.640Z,91.00
2018-02-05T06:50:28.464Z,91.00
2018-02-05T06:53:08.981Z,91.10
2018-02-05T06:55:46.796Z,91.10
2018-02-05T06:58:14.836Z,91.00
2018-02-05T07:00:42.868Z,90.90
2018-02-05T07:03:23.224Z,90.90
2018-02-05T07:05:53.236Z,90.80
2018-02-05T07:08:22.236Z,90.80
2018-02-05T07:10:51.044Z,90.80
2018-02-05T07:13:19.079Z,90.80
2018-02-05T07:15:48.060Z,90.70
2018-02-05T07:18:18.084Z,90.80
2018-02-05T07:20:47.060Z,90.50
2018-02-05T07:23:18.831Z,90.40
2018-02-05T07:25:47.827Z,90.30
2018-02-05T07:28:20.008Z,90.20
2018-02-05T07:30:48.800Z,90.10
2018-02-05T07:33:21.450Z,89.80
2018-02-05T07:35:50.467Z,89.70
2018-02-05T07:38:19.259Z,89.10
2018-02-05T07:40:48.281Z,89.00
2018-02-05T07:43:16.260Z,89.20
2018-02-05T07:45:44.287Z,88.80
2018-02-05T07:48:13.122Z,88.50
2018-02-05T07:50:42.144Z,88.40
2018-02-05T07:53:12.068Z,88.00
2018-02-05T07:55:58.916Z,88.00
2018-02-05T07:58:26.941Z,87.20
2018-02-05T08:00:55.257Z,87.00
2018-02-05T08:03:25.219Z,86.80
2018-02-05T08:05:53.247Z,86.20
2018-02-05T08:08:23.227Z,86.70
2018-02-05T08:10:54.455Z,86.60
2018-02-05T08:13:22.500Z,86.50
2018-02-05T08:15:51.415Z,85.30
2018-02-05T08:18:19.460Z,85.70
2018-02-05T08:20:47.487Z,85.30
2018-02-05T08:23:19.391Z,84.60
2018-02-05T08:25:55.004Z,84.50
2018-02-05T08:28:28.948Z,84.40
2018-02-05T08:30:56.983Z,83.50
2018-02-05T08:33:25.007Z,84.30
2018-02-05T08:35:53.923Z,83.00
2018-02-05T08:38:30.087Z,83.70
2018-02-05T08:40:58.911Z,84.20
2018-02-05T08:43:31.111Z,84.20
2018-02-05T08:46:00.040Z,83.40
2018-02-05T08:48:29.731Z,82.10
2018-02-05T08:50:57.751Z,81.90
2018-02-05T08:53:25.783Z,81.70
2018-02-05T08:55:54.159Z,82.30
2018-02-05T08:58:23.944Z,80.40
2018-02-05T09:00:52.939Z,80.40
2018-02-05T09:03:20.999Z,80.90
2018-02-05T09:06:01.812Z,80.30
2018-02-05T09:08:36.152Z,78.80
2018-02-05T09:11:04.171Z,78.80
2018-02-05T09:13:32.199Z,79.30
2018-02-05T09:16:03.899Z,79.30
2018-02-05T09:18:31.919Z,78.70
2018-02-05T09:21:01.871Z,79.00
2018-02-05T09:23:46.679Z,78.40
2018-02-05T09:26:20.211Z,79.80
2018-02-05T09:28:53.846Z,78.80
2018-02-05T09:31:22.815Z,79.10
2018-02-05T09:33:50.823Z,77.70
2018-02-05T09:36:20.506Z,77.90
2018-02-05T09:38:48.530Z,77.80
2018-02-05T09:41:18.462Z,77.80
2018-02-05T09:43:56.774Z,79.00
2018-02-05T09:46:33.947Z,77.60
2018-02-05T09:49:03.898Z,76.60
2018-02-05T09:51:32.815Z,77.00
2018-02-05T09:54:02.598Z,77.40
2018-02-05T09:56:30.643Z,77.30
2018-02-05T09:59:00.555Z,77.10
2018-02-05T10:01:33.051Z,77.90
2018-02-05T10:04:01.071Z,75.50
2018-02-05T10:06:32.350Z,75.40
2018-02-05T10:09:04.327Z,76.20
2018-02-05T10:11:33.351Z,76.70
2018-02-05T10:14:02.151Z,76.00
2018-02-05T10:16:33.959Z,75.80
2018-02-05T10:19:02.867Z,75.60
2018-02-05T10:21:31.483Z,78.00
2018-02-05T10:24:00.266Z,75.00
2018-02-05T10:26:33.311Z,72.90
2018-02-05T10:29:03.222Z,72.80
2018-02-05T10:31:33.135Z,68.40
2018-02-05T10:34:01.183Z,63.80
2018-02-05T10:36:29.200Z,58.70
2018-02-05T10:38:57.222Z,55.10
2018-02-05T10:41:27.172Z,53.50
2018-02-05T10:43:56.208Z,53.10
2018-02-05T10:46:24.194Z,52.60
2018-02-05T10:48:55.578Z,52.70
2018-02-05T10:51:29.295Z,54.30
2018-02-05T10:53:57.366Z,51.50
2018-02-05T10:56:26.346Z,49.60
2018-02-05T10:58:54.368Z,49.20
2018-02-05T11:01:28.071Z,47.10
2018-02-05T11:04:02.703Z,48.30
2018-02-05T11:06:33.890Z,45.70
2018-02-05T11:09:03.814Z,46.10
2018-02-05T11:11:32.607Z,47.40
2018-02-05T11:14:01.406Z,48.60
2018-02-05T11:16:31.394Z,48.60
2018-02-05T11:19:03.067Z,51.20
2018-02-05T11:21:32.034Z,50.90
2018-02-05T11:24:00.058Z,50.90
2018-02-05T11:26:29.970Z,50.40
2018-02-05T11:28:58.906Z,49.90
2018-02-05T11:31:26.914Z,49.50
2018-02-05T11:33:59.558Z,50.40
2018-02-05T11:36:28.487Z,50.40
2018-02-05T11:38:56.534Z,49.70
2018-02-05T11:41:28.286Z,48.80
2018-02-05T11:44:02.047Z,48.80
2018-02-05T11:46:31.994Z,46.20
2018-02-05T11:49:01.914Z,47.00
2018-02-05T11:51:30.914Z,46.80
2018-02-05T11:54:00.710Z,47.50
2018-02-05T11:56:30.750Z,47.40
2018-02-05T11:59:03.090Z,43.70
2018-02-05T12:01:34.862Z,43.70
2018-02-05T12:04:03.778Z,45.30
2018-02-05T12:06:32.574Z,44.30
2018-02-05T12:09:00.610Z,44.20
2018-02-05T12:11:29.550Z,44.90
2018-02-05T12:13:58.542Z,45.00
2018-02-05T12:16:26.598Z,44.50
2018-02-05T12:18:54.686Z,44.00
2018-02-05T12:21:22.710Z,42.60
2018-02-05T12:23:50.734Z,41.80
2018-02-05T12:26:18.762Z,40.90
2018-02-05T12:28:50.601Z,42.70
2018-02-05T12:31:20.526Z,43.40
2018-02-05T12:33:49.324Z,45.70
2018-02-05T12:36:17.342Z,45.10
2018-02-05T12:38:47.257Z,45.70
2018-02-05T12:41:15.289Z,46.40
2018-02-05T12:43:44.098Z,46.00
2018-02-05T12:46:12.110Z,46.00
2018-02-05T12:48:42.054Z,46.10
2018-02-05T12:51:11.829Z,45.20
2018-02-05T12:53:44.326Z,45.10
2018-02-05T12:56:12.360Z,43.30
2018-02-05T12:58:40.390Z,43.30
2018-02-05T13:01:13.344Z,43.30
2018-02-05T13:03:51.750Z,42.00
2018-02-05T13:06:27.329Z,41.60
2018-02-05T13:08:56.122Z,44.30
2018-02-05T13:11:26.054Z,44.30
2018-02-05T13:13:55.111Z,43.90
2018-02-05T13:16:23.914Z,45.20
2018-02-05T13:18:55.250Z,44.70
2018-02-05T13:21:24.038Z,44.00
2018-02-05T13:23:55.786Z,43.90
2018-02-05T13:26:28.662Z,45.60
2018-02-05T13:28:58.618Z,45.60
2018-02-05T13:31:27.550Z,44.50
2018-02-05T13:33:55.586Z,42.80
2018-02-05T13:36:23.610Z,42.40
2018-02-05T13:38:51.634Z,44.50
2018-02-05T13:41:23.562Z,45.50
2018-02-05T13:43:54.226Z,45.60
2018-02-05T13:46:22.234Z,45.50
2018-02-05T13:48:50.261Z,45.40
2018-02-05T13:51:18.274Z,45.30
2018-02-05T13:53:46.306Z,44.60
2018-02-05T13:56:14.326Z,44.20
2018-02-05T13:58:44.321Z,44.50
2018-02-05T14:01:12.334Z,44.30
2018-02-05T14:03:48.727Z,44.70
2018-02-05T14:06:19.914Z,45.60
2018-02-05T14:08:47.930Z,44.40
2018-02-05T14:11:19.685Z,45.20
2018-02-05T14:13:48.584Z,45.80
2018-02-05T14:16:17.490Z,45.60
2018-02-05T14:18:54.625Z,47.40
2018-02-05T14:21:23.405Z,46.60
2018-02-05T14:23:51.430Z,46.50
2018-02-05T14:26:21.341Z,45.80
2018-02-05T14:28:51.262Z,46.30
2018-02-05T14:31:20.165Z,47.90
2018-02-05T14:33:49.066Z,47.70
2018-02-05T14:36:18.046Z,49.50
2018-02-05T14:38:46.073Z,48.30
2018-02-05T14:41:15.409Z,47.80
2018-02-05T14:43:47.785Z,47.50
2018-02-05T14:46:16.717Z,47.50
2018-02-05T14:48:51.261Z,45.60
2018-02-05T14:51:19.285Z,45.60
2018-02-05T14:53:47.309Z,46.10
2018-02-05T14:56:16.237Z,46.50
2018-02-05T14:58:48.785Z,45.90
2018-02-05T15:01:20.749Z,46.10
2018-02-05T15:04:01.335Z,46.50
2018-02-05T15:06:30.197Z,46.60
2018-02-05T15:08:58.266Z,48.20
2018-02-05T15:11:31.225Z,47.10
2018-02-05T15:14:00.229Z,47.80
2018-02-05T15:16:33.813Z,48.50
2018-02-05T15:19:02.605Z,49.80
2018-02-05T15:21:32.365Z,51.00
2018-02-05T15:24:01.273Z,50.90
2018-02-05T15:26:36.909Z,50.10
2018-02-05T15:29:10.457Z,51.00
2018-02-05T15:31:39.345Z,50.70
2018-02-05T15:34:08.133Z,55.10
2018-02-05T15:36:47.093Z,56.60
2018-02-05T15:39:15.121Z,56.50
2018-02-05T15:41:43.905Z,59.70
2018-02-05T15:44:12.677Z,61.90
2018-02-05T15:46:51.545Z,61.80
2018-02-05T15:49:23.637Z,62.10
2018-02-05T15:51:58.005Z,62.90
2018-02-05T15:54:26.792Z,67.20
2018-02-05T15:56:56.478Z,69.70
2018-02-05T15:59:25.441Z,69.60
2018-02-05T16:01:56.901Z,70.90
2018-02-05T16:04:44.433Z,72.30
2018-02-05T16:07:12.453Z,73.00
2018-02-05T16:09:40.473Z,74.60
2018-02-05T16:12:08.513Z,75.00
2018-02-05T16:14:38.452Z,75.10
2018-02-05T16:17:06.477Z,75.40
2018-02-05T16:19:37.933Z,75.30
2018-02-05T16:22:09.733Z,75.60
2018-02-05T16:24:38.660Z,76.30
2018-02-05T16:27:19.713Z,77.00
2018-02-05T16:29:52.067Z,77.00
2018-02-05T16:32:23.821Z,77.70
2018-02-05T16:34:53.744Z,78.40
2018-02-05T16:37:35.873Z,77.90
2018-02-05T16:40:06.592Z,78.10
2018-02-05T16:42:39.166Z,78.00
2018-02-05T16:45:08.122Z,78.70
2018-02-05T16:47:37.132Z,79.00
2018-02-05T16:50:06.139Z,79.40
2018-02-05T16:52:40.751Z,79.50
2018-02-05T16:55:09.744Z,79.50
2018-02-05T16:57:39.664Z,79.60
2018-02-05T17:00:17.972Z,79.50
2018-02-05T17:02:46.912Z,79.70
2018-02-05T17:05:14.940Z,80.20
2018-02-05T17:07:42.968Z,80.30
2018-02-05T17:10:14.492Z,80.00
2018-02-05T17:12:44.484Z,79.80
2018-02-05T17:15:12.508Z,80.80
2018-02-05T17:17:48.652Z,80.90
2018-02-05T17:20:16.668Z,79.90
2018-02-05T17:22:48.540Z,80.30
2018-02-05T17:25:16.564Z,80.40
2018-02-05T17:27:49.084Z,80.40
2018-02-05T17:30:33.468Z,80.10
2018-02-05T17:33:20.184Z,80.20
2018-02-05T17:36:00.264Z,80.70
2018-02-05T17:38:31.352Z,79.90
2018-02-05T17:41:07.592Z,80.00
2018-02-05T17:43:48.156Z,80.00
2018-02-05T17:46:18.172Z,79.90
2018-02-05T17:48:50.772Z,80.50
2018-02-05T17:51:22.780Z,79.90
2018-02-05T17:53:52.756Z,80.20
2018-02-05T17:56:29.165Z,80.20
2018-02-05T17:58:59.116Z,80.20
2018-02-05T18:01:33.048Z,80.60
2018-02-05T18:04:01.916Z,80.50
2018-02-05T18:06:37.426Z,80.50
2018-02-05T18:09:07.368Z,79.90
2018-02-05T18:11:36.372Z,80.30
2018-02-05T18:14:05.280Z,80.40
2018-02-05T18:16:35.332Z,80.70
2018-02-05T18:22:02.604Z,81.40
2018-02-05T18:24:44.684Z,81.10
2018-02-05T18:27:18.112Z,81.70
2018-02-05T18:29:52.652Z,82.00
2018-02-05T18:32:31.464Z,81.70
2018-02-05T18:34:59.508Z,81.70
2018-02-05T18:37:45.624Z,81.60
2018-02-05T18:40:19.232Z,81.40
2018-02-05T18:42:54.392Z,80.40
2018-02-05T18:45:24.604Z,80.70
2018-02-05T18:48:00.108Z,81.40
2018-02-05T18:50:29.108Z,81.80
2018-02-05T18:52:59.084Z,82.20
2018-02-05T18:55:39.386Z,82.40
2018-02-05T18:58:08.363Z,82.40
2018-02-05T19:00:48.436Z,82.70
2018-02-05T19:03:20.411Z,82.40
2018-02-05T19:05:49.479Z,82.20
2018-02-05T19:08:25.467Z,83.00
2018-02-05T19:10:54.444Z,82.60
2018-02-05T19:13:29.779Z,82.80
2018-02-05T19:15:59.707Z,83.10
2018-02-05T19:18:27.731Z,82.70
2018-02-05T19:21:02.116Z,83.00
2018-02-05T19:23:31.052Z,82.80
2018-02-05T19:25:59.992Z,82.80
2018-02-05T19:28:31.092Z,82.90
2018-02-05T19:30:59.104Z,82.90
2018-02-05T19:33:29.128Z,83.10
2018-02-05T19:35:59.836Z,83.20
2018-02-05T19:38:28.855Z,83.10
2018-02-05T19:40:57.679Z,83.70
2018-02-05T19:43:28.187Z,83.70
2018-02-05T19:46:07.625Z,83.70
2018-02-05T19:48:41.580Z,83.30
2018-02-05T19:51:09.631Z,83.30
2018-02-05T19:53:44.210Z,83.30
2018-02-05T19:56:14.048Z,83.40
2018-02-05T19:58:43.019Z,83.30
2018-02-05T20:01:13.752Z,82.90
2018-02-05T20:03:42.565Z,82.40
2018-02-05T20:06:11.584Z,82.40
2018-02-05T20:08:44.198Z,82.50
2018-02-05T20:14:20.823Z,82.80
2018-02-05T20:16:48.919Z,82.60
2018-02-05T20:19:17.744Z,82.80
2018-02-05T20:21:47.755Z,82.70
2018-02-05T20:24:15.831Z,83.20
2018-02-05T20:26:44.823Z,83.10
2018-02-05T20:29:18.028Z,83.20
2018-02-05T20:31:49.703Z,83.10
2018-02-05T20:34:18.015Z,83.60
2018-02-05T20:36:52.859Z,83.70
2018-02-05T20:39:24.021Z,83.70
2018-02-05T20:41:52.071Z,83.90
2018-02-05T20:44:22.144Z,84.10
2018-02-05T20:46:57.711Z,84.90
2018-02-05T20:49:31.379Z,84.80
2018-02-05T20:52:00.183Z,84.40
2018-02-05T20:54:29.159Z,84.30
2018-02-05T20:57:04.471Z,84.50
2018-02-05T20:59:34.707Z,84.50
2018-02-05T21:02:07.192Z,85.00
2018-02-05T21:04:35.287Z,85.00
2018-02-05T21:07:04.326Z,85.70
2018-02-05T21:09:37.651Z,85.30
2018-02-05T21:12:06.863Z,85.70
2018-02-05T21:14:36.556Z,85.60
2018-02-05T21:17:05.567Z,85.50
2018-02-05T21:19:34.567Z,85.60
2018-02-05T21:22:04.323Z,86.20
2018-02-05T21:24:33.387Z,85.50
2018-02-05T21:27:03.451Z,85.80
2018-02-05T21:29:33.496Z,86.30
2018-02-05T21:32:02.471Z,86.40
2018-02-05T21:34:36.167Z,86.50
2018-02-05T21:37:05.883Z,86.40
2018-02-05T21:39:34.707Z,86.60
2018-02-05T21:42:02.767Z,86.60
2018-02-05T21:44:31.721Z,86.40
2018-02-05T21:47:04.210Z,86.70
2018-02-05T21:49:36.800Z,87.30
2018-02-05T21:52:04.871Z,87.30
2018-02-05T21:54:32.930Z,87.00
2018-02-05T21:57:04.747Z,87.20
2018-02-05T21:59:36.314Z,87.10
2018-02-05T22:02:04.347Z,87.40
2018-02-05T22:04:33.382Z,87.40
2018-02-05T22:07:03.411Z,87.70
2018-02-05T22:09:33.207Z,88.40
2018-02-05T22:12:03.223Z,88.30
2018-02-05T22:14:33.259Z,88.70
2018-02-05T22:17:04.566Z,88.80
2018-02-05T22:19:36.078Z,88.70
2018-02-05T22:22:04.963Z,88.90
2018-02-05T22:24:34.287Z,89.10
2018-02-05T22:27:04.663Z,89.40
2018-02-05T22:29:42.844Z,89.90
2018-02-05T22:32:56.994Z,90.20
2018-02-05T22:38:51.895Z,90.20
2018-02-05T22:41:29.303Z,90.20
2018-02-05T22:44:09.867Z,90.30
2018-02-05T22:47:01.181Z,90.50
2018-02-05T22:52:34.203Z,90.60
2018-02-05T23:01:09.563Z,90.60
2018-02-05T23:03:42.318Z,90.90
2018-02-05T23:06:10.638Z,90.90
2018-02-05T23:08:41.127Z,90.90
2018-02-05T23:11:17.651Z,91.10
2018-02-05T23:13:50.250Z,91.10
2018-02-05T23:16:22.703Z,91.10
